sensor_id;sensor_type;location;lat;lon;timestamp;P1;durP1;ratioP1;P2;durP2;ratioP2
66380;SDS011;53177;52.648;1.214;2024-02-16T00:00:17;10.23;;;4.85;;
66380;SDS011;53177;52.648;1.214;2024-02-16T00:02:43;11.00;;;5.10;;
66380;SDS011;53177;52.648;1.214;2024-02-16T00:05:09;12.07;;;5.18;;
66380;SDS011;53177;52.648;1.214;2024-02-16T00:07:36;11.10;;;5.00;;
66380;SDS011;53177;52.648;1.214;2024-02-16T00:10:03;11.18;;;4.70;;
66380;SDS011;53177;52.648;1.214;2024-02-16T00:12:30;11.43;;;5.13;;
66380;SDS011;53177;52.648;1.214;2024-02-16T00:14:56;9.25;;;4.63;;
66380;SDS011;53177;52.648;1.214;2024-02-16T00:17:22;9.18;;;4.70;;
66380;SDS011;53177;52.648;1.214;2024-02-16T00:19:51;13.18;;;4.65;;
66380;SDS011;53177;52.648;1.214;2024-02-16T00:22:17;9.80;;;4.97;;
66380;SDS011;53177;52.648;1.214;2024-02-16T00:24:42;10.63;;;4.80;;
66380;SDS011;53177;52.648;1.214;2024-02-16T00:27:08;11.02;;;5.00;;
66380;SDS011;53177;52.648;1.214;2024-02-16T00:29:33;9.13;;;4.63;;
66380;SDS011;53177;52.648;1.214;2024-02-16T00:31:59;8.77;;;4.70;;
66380;SDS011;53177;52.648;1.214;2024-02-16T00:34:25;8.68;;;4.72;;
66380;SDS011;53177;52.648;1.214;2024-02-16T00:36:50;11.07;;;4.97;;
66380;SDS011;53177;52.648;1.214;2024-02-16T00:39:17;12.18;;;5.07;;
66380;SDS011;53177;52.648;1.214;2024-02-16T00:41:42;10.80;;;5.60;;
66380;SDS011;53177;52.648;1.214;2024-02-16T00:44:08;13.15;;;5.43;;
66380;SDS011;53177;52.648;1.214;2024-02-16T00:46:35;10.60;;;5.30;;
66380;SDS011;53177;52.648;1.214;2024-02-16T00:49:01;10.43;;;5.15;;
66380;SDS011;53177;52.648;1.214;2024-02-16T00:51:26;9.80;;;5.63;;
66380;SDS011;53177;52.648;1.214;2024-02-16T00:53:52;11.07;;;5.30;;
66380;SDS011;53177;52.648;1.214;2024-02-16T00:56:18;12.45;;;5.43;;
66380;SDS011;53177;52.648;1.214;2024-02-16T00:58:43;11.90;;;5.40;;
66380;SDS011;53177;52.648;1.214;2024-02-16T01:01:08;12.43;;;6.43;;
66380;SDS011;53177;52.648;1.214;2024-02-16T01:03:36;10.43;;;5.78;;
66380;SDS011;53177;52.648;1.214;2024-02-16T01:06:03;12.63;;;5.55;;
66380;SDS011;53177;52.648;1.214;2024-02-16T01:08:29;10.40;;;5.32;;
66380;SDS011;53177;52.648;1.214;2024-02-16T01:10:55;12.43;;;5.60;;
66380;SDS011;53177;52.648;1.214;2024-02-16T01:13:20;11.95;;;5.60;;
66380;SDS011;53177;52.648;1.214;2024-02-16T01:15:46;11.77;;;5.77;;
66380;SDS011;53177;52.648;1.214;2024-02-16T01:18:11;14.67;;;6.30;;
66380;SDS011;53177;52.648;1.214;2024-02-16T01:20:37;12.63;;;6.00;;
66380;SDS011;53177;52.648;1.214;2024-02-16T01:23:02;13.43;;;6.05;;
66380;SDS011;53177;52.648;1.214;2024-02-16T01:25:29;10.47;;;5.87;;
66380;SDS011;53177;52.648;1.214;2024-02-16T01:27:56;12.07;;;6.05;;
66380;SDS011;53177;52.648;1.214;2024-02-16T01:30:21;14.27;;;6.00;;
66380;SDS011;53177;52.648;1.214;2024-02-16T01:32:47;12.65;;;7.00;;
66380;SDS011;53177;52.648;1.214;2024-02-16T01:35:12;15.03;;;6.70;;
66380;SDS011;53177;52.648;1.214;2024-02-16T01:37:40;13.43;;;6.07;;
66380;SDS011;53177;52.648;1.214;2024-02-16T01:40:06;13.50;;;6.82;;
66380;SDS011;53177;52.648;1.214;2024-02-16T01:42:34;16.40;;;7.03;;
66380;SDS011;53177;52.648;1.214;2024-02-16T01:44:59;13.13;;;6.63;;
66380;SDS011;53177;52.648;1.214;2024-02-16T01:47:25;13.45;;;6.70;;
66380;SDS011;53177;52.648;1.214;2024-02-16T01:49:51;13.13;;;6.60;;
66380;SDS011;53177;52.648;1.214;2024-02-16T01:52:16;14.05;;;7.25;;
66380;SDS011;53177;52.648;1.214;2024-02-16T01:54:42;13.70;;;6.80;;
66380;SDS011;53177;52.648;1.214;2024-02-16T01:57:07;14.00;;;6.80;;
66380;SDS011;53177;52.648;1.214;2024-02-16T01:59:33;14.23;;;6.93;;
66380;SDS011;53177;52.648;1.214;2024-02-16T02:02:01;13.45;;;6.72;;
66380;SDS011;53177;52.648;1.214;2024-02-16T02:04:26;13.07;;;7.10;;
66380;SDS011;53177;52.648;1.214;2024-02-16T02:06:52;13.80;;;7.15;;
66380;SDS011;53177;52.648;1.214;2024-02-16T02:09:17;12.97;;;6.90;;
66380;SDS011;53177;52.648;1.214;2024-02-16T02:11:43;13.00;;;6.60;;
66380;SDS011;53177;52.648;1.214;2024-02-16T02:14:09;13.68;;;6.97;;
66380;SDS011;53177;52.648;1.214;2024-02-16T02:16:35;16.90;;;7.37;;
66380;SDS011;53177;52.648;1.214;2024-02-16T02:19:02;15.10;;;7.45;;
66380;SDS011;53177;52.648;1.214;2024-02-16T02:21:27;14.40;;;7.70;;
66380;SDS011;53177;52.648;1.214;2024-02-16T02:23:53;13.45;;;7.30;;
66380;SDS011;53177;52.648;1.214;2024-02-16T02:26:18;15.02;;;7.78;;
66380;SDS011;53177;52.648;1.214;2024-02-16T02:28:43;16.30;;;7.53;;
66380;SDS011;53177;52.648;1.214;2024-02-16T02:31:09;15.20;;;8.03;;
66380;SDS011;53177;52.648;1.214;2024-02-16T02:33:34;13.83;;;7.20;;
66380;SDS011;53177;52.648;1.214;2024-02-16T02:36:00;16.02;;;8.10;;
66380;SDS011;53177;52.648;1.214;2024-02-16T02:38:26;15.27;;;7.70;;
66380;SDS011;53177;52.648;1.214;2024-02-16T02:40:52;15.35;;;8.95;;
66380;SDS011;53177;52.648;1.214;2024-02-16T02:43:17;14.83;;;9.10;;
66380;SDS011;53177;52.648;1.214;2024-02-16T02:45:44;16.10;;;8.52;;
66380;SDS011;53177;52.648;1.214;2024-02-16T02:48:10;16.55;;;8.60;;
66380;SDS011;53177;52.648;1.214;2024-02-16T02:50:35;17.58;;;8.63;;
66380;SDS011;53177;52.648;1.214;2024-02-16T02:53:00;18.93;;;8.50;;
66380;SDS011;53177;52.648;1.214;2024-02-16T02:55:26;14.50;;;9.03;;
66380;SDS011;53177;52.648;1.214;2024-02-16T02:57:51;12.70;;;7.47;;
66380;SDS011;53177;52.648;1.214;2024-02-16T03:00:17;16.27;;;8.93;;
66380;SDS011;53177;52.648;1.214;2024-02-16T03:02:43;18.07;;;8.77;;
66380;SDS011;53177;52.648;1.214;2024-02-16T03:05:09;19.50;;;8.70;;
66380;SDS011;53177;52.648;1.214;2024-02-16T03:07:36;16.85;;;8.68;;
66380;SDS011;53177;52.648;1.214;2024-02-16T03:10:02;20.17;;;9.10;;
66380;SDS011;53177;52.648;1.214;2024-02-16T03:12:28;16.13;;;8.57;;
66380;SDS011;53177;52.648;1.214;2024-02-16T03:14:54;19.10;;;9.87;;
66380;SDS011;53177;52.648;1.214;2024-02-16T03:17:19;16.73;;;8.82;;
66380;SDS011;53177;52.648;1.214;2024-02-16T03:19:44;15.57;;;8.27;;
66380;SDS011;53177;52.648;1.214;2024-02-16T03:22:10;18.97;;;9.20;;
66380;SDS011;53177;52.648;1.214;2024-02-16T03:24:35;19.67;;;9.43;;
66380;SDS011;53177;52.648;1.214;2024-02-16T03:27:01;17.27;;;9.35;;
66380;SDS011;53177;52.648;1.214;2024-02-16T03:29:27;18.73;;;9.50;;
66380;SDS011;53177;52.648;1.214;2024-02-16T03:31:52;19.08;;;10.32;;
66380;SDS011;53177;52.648;1.214;2024-02-16T03:34:18;17.97;;;9.77;;
66380;SDS011;53177;52.648;1.214;2024-02-16T03:36:43;19.73;;;10.17;;
66380;SDS011;53177;52.648;1.214;2024-02-16T03:39:08;18.30;;;9.60;;
66380;SDS011;53177;52.648;1.214;2024-02-16T03:41:34;19.80;;;10.33;;
66380;SDS011;53177;52.648;1.214;2024-02-16T03:43:59;18.52;;;10.05;;
66380;SDS011;53177;52.648;1.214;2024-02-16T03:46:25;15.97;;;8.63;;
66380;SDS011;53177;52.648;1.214;2024-02-16T03:48:51;19.90;;;10.05;;
66380;SDS011;53177;52.648;1.214;2024-02-16T03:51:17;20.67;;;10.87;;
66380;SDS011;53177;52.648;1.214;2024-02-16T03:53:42;18.73;;;10.90;;
66380;SDS011;53177;52.648;1.214;2024-02-16T03:56:09;22.13;;;11.03;;
66380;SDS011;53177;52.648;1.214;2024-02-16T03:58:35;20.35;;;10.40;;
66380;SDS011;53177;52.648;1.214;2024-02-16T04:01:02;22.48;;;10.63;;
66380;SDS011;53177;52.648;1.214;2024-02-16T04:03:27;20.63;;;11.00;;
66380;SDS011;53177;52.648;1.214;2024-02-16T04:05:53;21.27;;;10.40;;
66380;SDS011;53177;52.648;1.214;2024-02-16T04:08:18;21.80;;;11.13;;
66380;SDS011;53177;52.648;1.214;2024-02-16T04:10:45;22.85;;;11.20;;
66380;SDS011;53177;52.648;1.214;2024-02-16T04:13:10;19.00;;;10.70;;
66380;SDS011;53177;52.648;1.214;2024-02-16T04:15:36;23.17;;;11.30;;
66380;SDS011;53177;52.648;1.214;2024-02-16T04:18:01;20.17;;;10.83;;
66380;SDS011;53177;52.648;1.214;2024-02-16T04:20:27;19.67;;;10.83;;
66380;SDS011;53177;52.648;1.214;2024-02-16T04:22:52;22.13;;;10.57;;
66380;SDS011;53177;52.648;1.214;2024-02-16T04:25:18;19.90;;;10.70;;
66380;SDS011;53177;52.648;1.214;2024-02-16T04:27:43;18.53;;;9.53;;
66380;SDS011;53177;52.648;1.214;2024-02-16T04:30:09;19.57;;;10.80;;
66380;SDS011;53177;52.648;1.214;2024-02-16T04:32:34;19.70;;;10.52;;
66380;SDS011;53177;52.648;1.214;2024-02-16T04:35:00;20.23;;;10.40;;
66380;SDS011;53177;52.648;1.214;2024-02-16T04:37:25;19.03;;;10.37;;
66380;SDS011;53177;52.648;1.214;2024-02-16T04:39:51;17.70;;;9.77;;
66380;SDS011;53177;52.648;1.214;2024-02-16T04:42:17;17.73;;;9.30;;
66380;SDS011;53177;52.648;1.214;2024-02-16T04:44:42;17.00;;;9.07;;
66380;SDS011;53177;52.648;1.214;2024-02-16T04:47:08;17.13;;;8.10;;
66380;SDS011;53177;52.648;1.214;2024-02-16T04:49:34;15.20;;;7.47;;
66380;SDS011;53177;52.648;1.214;2024-02-16T04:52:00;13.27;;;6.67;;
66380;SDS011;53177;52.648;1.214;2024-02-16T04:54:25;12.37;;;6.00;;
66380;SDS011;53177;52.648;1.214;2024-02-16T04:56:51;13.23;;;5.80;;
66380;SDS011;53177;52.648;1.214;2024-02-16T04:59:16;10.97;;;5.53;;
66380;SDS011;53177;52.648;1.214;2024-02-16T05:01:45;13.30;;;5.67;;
66380;SDS011;53177;52.648;1.214;2024-02-16T05:04:11;11.43;;;5.40;;
66380;SDS011;53177;52.648;1.214;2024-02-16T05:06:41;13.45;;;6.20;;
66380;SDS011;53177;52.648;1.214;2024-02-16T05:09:06;13.20;;;5.80;;
66380;SDS011;53177;52.648;1.214;2024-02-16T05:11:32;13.80;;;6.10;;
66380;SDS011;53177;52.648;1.214;2024-02-16T05:13:58;14.73;;;6.87;;
66380;SDS011;53177;52.648;1.214;2024-02-16T05:16:23;14.93;;;6.53;;
66380;SDS011;53177;52.648;1.214;2024-02-16T05:18:49;14.33;;;6.90;;
66380;SDS011;53177;52.648;1.214;2024-02-16T05:21:14;14.50;;;6.63;;
66380;SDS011;53177;52.648;1.214;2024-02-16T05:23:39;17.37;;;7.00;;
66380;SDS011;53177;52.648;1.214;2024-02-16T05:26:05;15.25;;;6.45;;
66380;SDS011;53177;52.648;1.214;2024-02-16T05:28:30;12.48;;;6.25;;
66380;SDS011;53177;52.648;1.214;2024-02-16T05:30:56;12.33;;;5.77;;
66380;SDS011;53177;52.648;1.214;2024-02-16T05:33:23;14.13;;;6.63;;
66380;SDS011;53177;52.648;1.214;2024-02-16T05:35:48;13.93;;;6.53;;
66380;SDS011;53177;52.648;1.214;2024-02-16T05:38:20;14.52;;;6.47;;
66380;SDS011;53177;52.648;1.214;2024-02-16T05:40:49;16.25;;;6.93;;
66380;SDS011;53177;52.648;1.214;2024-02-16T05:43:22;13.80;;;6.50;;
66380;SDS011;53177;52.648;1.214;2024-02-16T05:45:48;13.52;;;5.82;;
66380;SDS011;53177;52.648;1.214;2024-02-16T05:48:14;14.15;;;6.35;;
66380;SDS011;53177;52.648;1.214;2024-02-16T05:50:39;12.53;;;6.20;;
66380;SDS011;53177;52.648;1.214;2024-02-16T05:53:06;14.07;;;6.22;;
66380;SDS011;53177;52.648;1.214;2024-02-16T05:55:31;13.93;;;6.47;;
66380;SDS011;53177;52.648;1.214;2024-02-16T05:57:57;13.67;;;5.83;;
66380;SDS011;53177;52.648;1.214;2024-02-16T06:00:22;15.07;;;6.30;;
66380;SDS011;53177;52.648;1.214;2024-02-16T06:02:48;16.90;;;6.57;;
66380;SDS011;53177;52.648;1.214;2024-02-16T06:05:13;16.07;;;6.30;;
66380;SDS011;53177;52.648;1.214;2024-02-16T06:07:38;13.65;;;6.15;;
66380;SDS011;53177;52.648;1.214;2024-02-16T06:10:04;15.50;;;6.70;;
66380;SDS011;53177;52.648;1.214;2024-02-16T06:12:38;14.60;;;6.05;;
66380;SDS011;53177;52.648;1.214;2024-02-16T06:15:04;16.25;;;6.90;;
66380;SDS011;53177;52.648;1.214;2024-02-16T06:17:31;15.77;;;6.10;;
66380;SDS011;53177;52.648;1.214;2024-02-16T06:19:56;15.10;;;5.57;;
66380;SDS011;53177;52.648;1.214;2024-02-16T06:22:22;13.57;;;5.67;;
66380;SDS011;53177;52.648;1.214;2024-02-16T06:24:47;14.83;;;5.63;;
66380;SDS011;53177;52.648;1.214;2024-02-16T06:27:12;13.83;;;5.43;;
66380;SDS011;53177;52.648;1.214;2024-02-16T06:29:38;12.82;;;5.53;;
66380;SDS011;53177;52.648;1.214;2024-02-16T06:32:04;13.07;;;5.05;;
66380;SDS011;53177;52.648;1.214;2024-02-16T06:34:30;13.50;;;5.50;;
66380;SDS011;53177;52.648;1.214;2024-02-16T06:36:56;13.13;;;5.00;;
66380;SDS011;53177;52.648;1.214;2024-02-16T06:39:22;11.27;;;5.30;;
66380;SDS011;53177;52.648;1.214;2024-02-16T06:41:47;10.60;;;4.97;;
66380;SDS011;53177;52.648;1.214;2024-02-16T06:44:14;12.50;;;5.20;;
66380;SDS011;53177;52.648;1.214;2024-02-16T06:46:41;10.98;;;4.97;;
66380;SDS011;53177;52.648;1.214;2024-02-16T06:49:06;11.23;;;4.73;;
66380;SDS011;53177;52.648;1.214;2024-02-16T06:51:32;11.85;;;5.22;;
66380;SDS011;53177;52.648;1.214;2024-02-16T06:53:57;10.77;;;5.20;;
66380;SDS011;53177;52.648;1.214;2024-02-16T06:56:23;12.75;;;5.65;;
66380;SDS011;53177;52.648;1.214;2024-02-16T06:58:49;14.60;;;5.25;;
66380;SDS011;53177;52.648;1.214;2024-02-16T07:01:15;14.47;;;6.47;;
66380;SDS011;53177;52.648;1.214;2024-02-16T07:03:41;14.48;;;6.47;;
66380;SDS011;53177;52.648;1.214;2024-02-16T07:06:08;15.80;;;6.85;;
66380;SDS011;53177;52.648;1.214;2024-02-16T07:08:37;17.10;;;7.20;;
66380;SDS011;53177;52.648;1.214;2024-02-16T07:11:03;18.77;;;7.80;;
66380;SDS011;53177;52.648;1.214;2024-02-16T07:13:29;14.87;;;6.93;;
66380;SDS011;53177;52.648;1.214;2024-02-16T07:15:55;17.38;;;7.55;;
66380;SDS011;53177;52.648;1.214;2024-02-16T07:18:21;17.40;;;7.40;;
66380;SDS011;53177;52.648;1.214;2024-02-16T07:20:46;18.42;;;7.85;;
66380;SDS011;53177;52.648;1.214;2024-02-16T07:23:12;19.60;;;8.67;;
66380;SDS011;53177;52.648;1.214;2024-02-16T07:25:40;23.10;;;8.82;;
66380;SDS011;53177;52.648;1.214;2024-02-16T07:28:06;21.75;;;9.60;;
66380;SDS011;53177;52.648;1.214;2024-02-16T07:30:33;22.33;;;9.93;;
66380;SDS011;53177;52.648;1.214;2024-02-16T07:32:58;22.20;;;10.40;;
66380;SDS011;53177;52.648;1.214;2024-02-16T07:35:24;22.85;;;9.98;;
66380;SDS011;53177;52.648;1.214;2024-02-16T07:37:50;24.20;;;9.50;;
66380;SDS011;53177;52.648;1.214;2024-02-16T07:40:19;22.55;;;10.15;;
66380;SDS011;53177;52.648;1.214;2024-02-16T07:42:45;25.30;;;10.73;;
66380;SDS011;53177;52.648;1.214;2024-02-16T07:45:11;24.40;;;10.77;;
66380;SDS011;53177;52.648;1.214;2024-02-16T07:47:40;25.53;;;10.70;;
66380;SDS011;53177;52.648;1.214;2024-02-16T07:50:06;25.67;;;10.65;;
66380;SDS011;53177;52.648;1.214;2024-02-16T07:52:31;25.50;;;11.00;;
66380;SDS011;53177;52.648;1.214;2024-02-16T07:54:57;25.40;;;11.32;;
66380;SDS011;53177;52.648;1.214;2024-02-16T07:57:23;25.08;;;10.63;;
66380;SDS011;53177;52.648;1.214;2024-02-16T07:59:49;24.20;;;11.07;;
66380;SDS011;53177;52.648;1.214;2024-02-16T08:02:14;26.48;;;11.10;;
66380;SDS011;53177;52.648;1.214;2024-02-16T08:04:42;25.60;;;11.27;;
66380;SDS011;53177;52.648;1.214;2024-02-16T08:07:11;24.23;;;10.52;;
66380;SDS011;53177;52.648;1.214;2024-02-16T08:09:37;22.05;;;10.32;;
66380;SDS011;53177;52.648;1.214;2024-02-16T08:12:02;26.03;;;11.60;;
66380;SDS011;53177;52.648;1.214;2024-02-16T08:14:30;23.75;;;11.00;;
66380;SDS011;53177;52.648;1.214;2024-02-16T08:16:57;23.58;;;10.60;;
66380;SDS011;53177;52.648;1.214;2024-02-16T08:19:23;22.13;;;9.95;;
66380;SDS011;53177;52.648;1.214;2024-02-16T08:21:48;21.80;;;10.20;;
66380;SDS011;53177;52.648;1.214;2024-02-16T08:24:14;21.53;;;9.23;;
66380;SDS011;53177;52.648;1.214;2024-02-16T08:26:39;22.40;;;9.00;;
66380;SDS011;53177;52.648;1.214;2024-02-16T08:29:05;19.40;;;9.15;;
66380;SDS011;53177;52.648;1.214;2024-02-16T08:31:30;18.57;;;7.97;;
66380;SDS011;53177;52.648;1.214;2024-02-16T08:33:56;21.27;;;8.43;;
66380;SDS011;53177;52.648;1.214;2024-02-16T08:36:21;20.38;;;8.30;;
66380;SDS011;53177;52.648;1.214;2024-02-16T08:38:53;21.52;;;8.32;;
66380;SDS011;53177;52.648;1.214;2024-02-16T08:41:18;17.00;;;7.67;;
66380;SDS011;53177;52.648;1.214;2024-02-16T08:43:44;20.92;;;7.90;;
66380;SDS011;53177;52.648;1.214;2024-02-16T08:46:09;19.57;;;7.50;;
66380;SDS011;53177;52.648;1.214;2024-02-16T08:48:35;17.10;;;7.03;;
66380;SDS011;53177;52.648;1.214;2024-02-16T08:51:00;14.90;;;6.88;;
66380;SDS011;53177;52.648;1.214;2024-02-16T08:53:26;17.40;;;6.80;;
66380;SDS011;53177;52.648;1.214;2024-02-16T08:55:51;16.40;;;6.80;;
66380;SDS011;53177;52.648;1.214;2024-02-16T08:58:17;16.60;;;5.77;;
66380;SDS011;53177;52.648;1.214;2024-02-16T09:00:43;13.88;;;5.55;;
66380;SDS011;53177;52.648;1.214;2024-02-16T09:03:09;14.13;;;5.35;;
66380;SDS011;53177;52.648;1.214;2024-02-16T09:05:34;16.30;;;6.10;;
66380;SDS011;53177;52.648;1.214;2024-02-16T09:08:00;15.50;;;6.20;;
66380;SDS011;53177;52.648;1.214;2024-02-16T09:10:27;15.32;;;5.85;;
66380;SDS011;53177;52.648;1.214;2024-02-16T09:12:52;14.13;;;5.95;;
66380;SDS011;53177;52.648;1.214;2024-02-16T09:15:18;12.40;;;5.33;;
66380;SDS011;53177;52.648;1.214;2024-02-16T09:17:43;13.30;;;5.33;;
66380;SDS011;53177;52.648;1.214;2024-02-16T09:20:10;14.93;;;6.47;;
66380;SDS011;53177;52.648;1.214;2024-02-16T09:22:36;14.48;;;5.70;;
66380;SDS011;53177;52.648;1.214;2024-02-16T09:25:02;12.45;;;5.82;;
66380;SDS011;53177;52.648;1.214;2024-02-16T09:27:28;12.93;;;5.80;;
66380;SDS011;53177;52.648;1.214;2024-02-16T09:29:53;12.48;;;6.30;;
66380;SDS011;53177;52.648;1.214;2024-02-16T09:32:19;16.90;;;6.93;;
66380;SDS011;53177;52.648;1.214;2024-02-16T09:34:45;17.23;;;6.93;;
66380;SDS011;53177;52.648;1.214;2024-02-16T09:37:10;13.55;;;6.45;;
66380;SDS011;53177;52.648;1.214;2024-02-16T09:39:37;14.02;;;6.07;;
66380;SDS011;53177;52.648;1.214;2024-02-16T09:42:03;12.60;;;6.13;;
66380;SDS011;53177;52.648;1.214;2024-02-16T09:44:28;15.60;;;7.45;;
66380;SDS011;53177;52.648;1.214;2024-02-16T09:46:55;13.10;;;6.30;;
66380;SDS011;53177;52.648;1.214;2024-02-16T09:49:22;12.98;;;6.25;;
66380;SDS011;53177;52.648;1.214;2024-02-16T09:51:47;13.63;;;6.00;;
66380;SDS011;53177;52.648;1.214;2024-02-16T09:54:13;13.37;;;6.17;;
66380;SDS011;53177;52.648;1.214;2024-02-16T09:56:38;14.32;;;6.80;;
66380;SDS011;53177;52.648;1.214;2024-02-16T09:59:04;18.43;;;6.77;;
66380;SDS011;53177;52.648;1.214;2024-02-16T10:01:29;14.63;;;6.53;;
66380;SDS011;53177;52.648;1.214;2024-02-16T10:03:59;11.40;;;6.03;;
66380;SDS011;53177;52.648;1.214;2024-02-16T10:06:31;15.25;;;6.65;;
66380;SDS011;53177;52.648;1.214;2024-02-16T10:08:57;13.70;;;6.67;;
66380;SDS011;53177;52.648;1.214;2024-02-16T10:11:23;13.68;;;6.53;;
66380;SDS011;53177;52.648;1.214;2024-02-16T10:16:21;13.48;;;6.63;;
66380;SDS011;53177;52.648;1.214;2024-02-16T10:18:46;12.35;;;6.25;;
66380;SDS011;53177;52.648;1.214;2024-02-16T10:21:11;12.95;;;6.22;;
66380;SDS011;53177;52.648;1.214;2024-02-16T10:23:37;13.20;;;6.50;;
66380;SDS011;53177;52.648;1.214;2024-02-16T10:26:02;12.97;;;6.60;;
66380;SDS011;53177;52.648;1.214;2024-02-16T10:28:29;10.73;;;6.03;;
66380;SDS011;53177;52.648;1.214;2024-02-16T10:30:59;11.88;;;6.00;;
66380;SDS011;53177;52.648;1.214;2024-02-16T10:33:29;9.70;;;5.47;;
66380;SDS011;53177;52.648;1.214;2024-02-16T10:35:57;11.20;;;5.90;;
66380;SDS011;53177;52.648;1.214;2024-02-16T10:38:24;13.77;;;5.50;;
66380;SDS011;53177;52.648;1.214;2024-02-16T10:40:50;11.55;;;6.20;;
66380;SDS011;53177;52.648;1.214;2024-02-16T10:43:17;11.43;;;6.15;;
66380;SDS011;53177;52.648;1.214;2024-02-16T10:45:43;11.55;;;5.80;;
66380;SDS011;53177;52.648;1.214;2024-02-16T10:48:10;12.40;;;5.93;;
66380;SDS011;53177;52.648;1.214;2024-02-16T10:50:36;11.98;;;5.45;;
66380;SDS011;53177;52.648;1.214;2024-02-16T10:53:09;9.87;;;5.30;;
66380;SDS011;53177;52.648;1.214;2024-02-16T10:55:39;10.77;;;5.22;;
66380;SDS011;53177;52.648;1.214;2024-02-16T10:58:06;9.25;;;4.43;;
66380;SDS011;53177;52.648;1.214;2024-02-16T11:00:33;7.68;;;3.92;;
66380;SDS011;53177;52.648;1.214;2024-02-16T11:03:01;8.93;;;3.67;;
66380;SDS011;53177;52.648;1.214;2024-02-16T11:05:41;8.65;;;3.90;;
66380;SDS011;53177;52.648;1.214;2024-02-16T11:08:16;8.75;;;3.80;;
66380;SDS011;53177;52.648;1.214;2024-02-16T11:10:56;8.82;;;4.00;;
66380;SDS011;53177;52.648;1.214;2024-02-16T11:13:26;8.27;;;3.70;;
66380;SDS011;53177;52.648;1.214;2024-02-16T11:15:59;8.55;;;3.75;;
66380;SDS011;53177;52.648;1.214;2024-02-16T11:18:28;8.95;;;3.83;;
66380;SDS011;53177;52.648;1.214;2024-02-16T11:20:55;10.00;;;4.68;;
66380;SDS011;53177;52.648;1.214;2024-02-16T11:23:27;9.17;;;4.10;;
66380;SDS011;53177;52.648;1.214;2024-02-16T11:26:00;9.93;;;4.70;;
66380;SDS011;53177;52.648;1.214;2024-02-16T11:28:27;11.02;;;4.80;;
66380;SDS011;53177;52.648;1.214;2024-02-16T11:30:53;9.75;;;5.38;;
66380;SDS011;53177;52.648;1.214;2024-02-16T11:33:18;12.53;;;5.67;;
66380;SDS011;53177;52.648;1.214;2024-02-16T11:35:52;10.70;;;5.43;;
66380;SDS011;53177;52.648;1.214;2024-02-16T11:38:21;12.18;;;5.50;;
66380;SDS011;53177;52.648;1.214;2024-02-16T11:43:40;8.18;;;4.38;;
66380;SDS011;53177;52.648;1.214;2024-02-16T11:46:14;7.93;;;4.17;;
66380;SDS011;53177;52.648;1.214;2024-02-16T11:48:41;6.82;;;3.75;;
66380;SDS011;53177;52.648;1.214;2024-02-16T11:51:07;7.73;;;3.80;;
66380;SDS011;53177;52.648;1.214;2024-02-16T11:53:32;8.80;;;3.17;;
66380;SDS011;53177;52.648;1.214;2024-02-16T11:55:58;5.33;;;2.70;;
66380;SDS011;53177;52.648;1.214;2024-02-16T11:58:25;7.22;;;2.72;;
66380;SDS011;53177;52.648;1.214;2024-02-16T12:00:51;7.60;;;3.03;;
66380;SDS011;53177;52.648;1.214;2024-02-16T12:03:20;6.93;;;2.92;;
66380;SDS011;53177;52.648;1.214;2024-02-16T12:05:53;6.72;;;2.80;;
66380;SDS011;53177;52.648;1.214;2024-02-16T12:08:20;6.18;;;2.20;;
66380;SDS011;53177;52.648;1.214;2024-02-16T12:10:50;5.68;;;2.50;;
66380;SDS011;53177;52.648;1.214;2024-02-16T12:13:16;6.30;;;2.40;;
66380;SDS011;53177;52.648;1.214;2024-02-16T12:15:46;7.45;;;2.45;;
66380;SDS011;53177;52.648;1.214;2024-02-16T12:18:22;6.72;;;2.33;;
66380;SDS011;53177;52.648;1.214;2024-02-16T12:21:05;6.88;;;1.90;;
66380;SDS011;53177;52.648;1.214;2024-02-16T12:23:32;5.00;;;1.92;;
66380;SDS011;53177;52.648;1.214;2024-02-16T12:25:58;5.88;;;1.60;;
66380;SDS011;53177;52.648;1.214;2024-02-16T12:28:25;6.68;;;1.50;;
66380;SDS011;53177;52.648;1.214;2024-02-16T12:30:55;5.97;;;1.60;;
66380;SDS011;53177;52.648;1.214;2024-02-16T12:33:21;5.45;;;1.30;;
66380;SDS011;53177;52.648;1.214;2024-02-16T12:35:47;4.30;;;1.50;;
66380;SDS011;53177;52.648;1.214;2024-02-16T12:38:12;5.23;;;1.50;;
66380;SDS011;53177;52.648;1.214;2024-02-16T12:40:38;4.57;;;1.70;;
66380;SDS011;53177;52.648;1.214;2024-02-16T12:43:03;6.47;;;2.00;;
66380;SDS011;53177;52.648;1.214;2024-02-16T12:45:29;6.40;;;2.40;;
66380;SDS011;53177;52.648;1.214;2024-02-16T12:47:56;6.35;;;2.53;;
66380;SDS011;53177;52.648;1.214;2024-02-16T12:50:23;6.05;;;2.40;;
66380;SDS011;53177;52.648;1.214;2024-02-16T12:52:49;6.63;;;2.20;;
66380;SDS011;53177;52.648;1.214;2024-02-16T12:55:14;7.13;;;2.10;;
66380;SDS011;53177;52.648;1.214;2024-02-16T12:57:41;6.47;;;2.25;;
66380;SDS011;53177;52.648;1.214;2024-02-16T13:00:06;4.87;;;1.90;;
66380;SDS011;53177;52.648;1.214;2024-02-16T13:02:32;5.93;;;1.83;;
66380;SDS011;53177;52.648;1.214;2024-02-16T13:04:58;5.23;;;1.60;;
66380;SDS011;53177;52.648;1.214;2024-02-16T13:07:23;4.80;;;1.30;;
66380;SDS011;53177;52.648;1.214;2024-02-16T13:09:49;6.25;;;1.50;;
66380;SDS011;53177;52.648;1.214;2024-02-16T13:12:16;4.43;;;1.27;;
66380;SDS011;53177;52.648;1.214;2024-02-16T13:14:42;5.22;;;1.40;;
66380;SDS011;53177;52.648;1.214;2024-02-16T13:17:07;3.80;;;1.10;;
66380;SDS011;53177;52.648;1.214;2024-02-16T13:19:32;4.07;;;1.10;;
66380;SDS011;53177;52.648;1.214;2024-02-16T13:21:58;5.67;;;1.20;;
66380;SDS011;53177;52.648;1.214;2024-02-16T13:24:23;5.83;;;0.97;;
66380;SDS011;53177;52.648;1.214;2024-02-16T13:26:49;5.72;;;1.13;;
66380;SDS011;53177;52.648;1.214;2024-02-16T13:29:15;7.03;;;1.30;;
66380;SDS011;53177;52.648;1.214;2024-02-16T13:31:40;4.33;;;0.90;;
66380;SDS011;53177;52.648;1.214;2024-02-16T13:34:07;3.80;;;0.90;;
66380;SDS011;53177;52.648;1.214;2024-02-16T13:36:33;4.93;;;0.98;;
66380;SDS011;53177;52.648;1.214;2024-02-16T13:38:58;4.03;;;0.90;;
66380;SDS011;53177;52.648;1.214;2024-02-16T13:41:24;6.00;;;1.02;;
66380;SDS011;53177;52.648;1.214;2024-02-16T13:43:50;6.20;;;0.87;;
66380;SDS011;53177;52.648;1.214;2024-02-16T13:46:16;4.53;;;1.00;;
66380;SDS011;53177;52.648;1.214;2024-02-16T13:48:42;4.22;;;0.88;;
66380;SDS011;53177;52.648;1.214;2024-02-16T13:51:08;3.60;;;0.80;;
66380;SDS011;53177;52.648;1.214;2024-02-16T13:53:34;4.40;;;0.90;;
66380;SDS011;53177;52.648;1.214;2024-02-16T13:56:00;5.03;;;0.88;;
66380;SDS011;53177;52.648;1.214;2024-02-16T13:58:29;3.53;;;0.80;;
66380;SDS011;53177;52.648;1.214;2024-02-16T14:00:55;6.93;;;1.20;;
66380;SDS011;53177;52.648;1.214;2024-02-16T14:03:21;6.72;;;1.20;;
66380;SDS011;53177;52.648;1.214;2024-02-16T14:05:47;4.90;;;1.27;;
66380;SDS011;53177;52.648;1.214;2024-02-16T14:08:13;7.85;;;1.73;;
66380;SDS011;53177;52.648;1.214;2024-02-16T14:10:40;5.53;;;1.48;;
66380;SDS011;53177;52.648;1.214;2024-02-16T14:13:05;4.47;;;1.20;;
66380;SDS011;53177;52.648;1.214;2024-02-16T14:15:31;5.27;;;1.50;;
66380;SDS011;53177;52.648;1.214;2024-02-16T14:17:56;6.13;;;1.07;;
66380;SDS011;53177;52.648;1.214;2024-02-16T14:20:22;5.55;;;1.23;;
66380;SDS011;53177;52.648;1.214;2024-02-16T14:22:47;5.73;;;1.30;;
66380;SDS011;53177;52.648;1.214;2024-02-16T14:25:13;3.95;;;1.15;;
66380;SDS011;53177;52.648;1.214;2024-02-16T14:27:39;5.83;;;1.50;;
66380;SDS011;53177;52.648;1.214;2024-02-16T14:30:06;6.32;;;1.20;;
66380;SDS011;53177;52.648;1.214;2024-02-16T14:32:32;5.95;;;1.50;;
66380;SDS011;53177;52.648;1.214;2024-02-16T14:34:58;6.13;;;1.70;;